createdAt,value
2023-05-24T00:02:00.079Z,23.88
2023-05-24T00:04:30.558Z,23.84
2023-05-24T00:06:59.179Z,23.80
2023-05-24T00:09:28.018Z,23.74
2023-05-24T00:11:56.718Z,23.71
2023-05-24T00:14:25.917Z,23.70
2023-05-24T00:16:54.564Z,23.68
2023-05-24T00:19:23.788Z,23.64
2023-05-24T00:21:52.363Z,23.58
2023-05-24T00:24:21.383Z,23.60
2023-05-24T00:26:49.859Z,23.48
2023-05-24T00:29:18.587Z,23.50
2023-05-24T00:31:47.032Z,23.53
2023-05-24T00:34:16.006Z,23.49
2023-05-24T00:36:46.963Z,23.41
2023-05-24T00:39:17.810Z,23.36
2023-05-24T00:41:46.297Z,23.31
2023-05-24T00:44:15.208Z,23.24
2023-05-24T00:46:43.729Z,23.29
2023-05-24T00:49:12.642Z,23.27
2023-05-24T00:51:41.193Z,23.22
2023-05-24T00:54:10.106Z,23.26
2023-05-24T00:56:38.633Z,23.28
2023-05-24T00:59:07.815Z,23.26
2023-05-24T01:01:37.566Z,23.21
2023-05-24T01:04:07.805Z,23.14
2023-05-24T01:07:08.305Z,23.17
2023-05-24T01:09:58.802Z,23.11
2023-05-24T01:12:51.692Z,23.10
2023-05-24T01:15:45.078Z,23.03
2023-05-24T01:18:26.297Z,23.03
2023-05-24T01:21:39.042Z,22.92
2023-05-24T01:24:44.812Z,22.79
2023-05-24T01:27:13.729Z,22.77
2023-05-24T01:29:42.154Z,22.78
2023-05-24T01:32:11.064Z,22.77
2023-05-24T01:34:41.287Z,22.72
2023-05-24T01:37:10.954Z,22.71
2023-05-24T01:39:41.558Z,22.64
2023-05-24T01:42:25.075Z,22.67
2023-05-24T01:45:07.820Z,22.67
2023-05-24T01:47:59.101Z,22.58
2023-05-24T01:50:33.511Z,22.63
2023-05-24T01:53:08.120Z,22.63
2023-05-24T01:55:36.693Z,22.65
2023-05-24T01:58:06.125Z,22.59
2023-05-24T02:00:34.890Z,22.58
2023-05-24T02:03:03.823Z,22.59
2023-05-24T02:05:35.541Z,22.62
2023-05-24T02:08:08.056Z,22.53
2023-05-24T02:10:39.785Z,22.41
2023-05-24T02:13:08.742Z,22.58
2023-05-24T02:15:37.318Z,22.46
2023-05-24T02:18:08.552Z,22.30
2023-05-24T02:20:37.359Z,22.24
2023-05-24T02:23:07.208Z,22.41
2023-05-24T02:25:35.725Z,22.43
2023-05-24T02:28:04.470Z,22.42
2023-05-24T02:30:32.901Z,22.30
2023-05-24T02:33:02.282Z,22.20
2023-05-24T02:35:30.981Z,22.26
2023-05-24T02:38:00.042Z,22.27
2023-05-24T02:40:28.552Z,22.38
2023-05-24T02:42:57.267Z,22.44
2023-05-24T02:45:25.868Z,22.21
2023-05-24T02:47:54.609Z,22.13
2023-05-24T02:50:23.122Z,22.21
2023-05-24T02:52:51.909Z,22.28
2023-05-24T02:55:20.770Z,22.20
2023-05-24T02:57:49.539Z,22.18
2023-05-24T03:00:18.809Z,22.03
2023-05-24T03:02:51.501Z,22.05
2023-05-24T03:05:20.196Z,21.88
2023-05-24T03:07:49.297Z,21.89
2023-05-24T03:10:17.894Z,21.71
2023-05-24T03:12:47.496Z,21.64
2023-05-24T03:15:17.885Z,21.56
2023-05-24T03:17:48.403Z,21.58
2023-05-24T03:20:18.470Z,21.77
2023-05-24T03:22:47.878Z,21.71
2023-05-24T03:25:17.471Z,21.66
2023-05-24T03:27:47.051Z,21.59
2023-05-24T03:30:16.578Z,21.56
2023-05-24T03:32:55.201Z,21.47
2023-05-24T03:35:23.921Z,21.44
2023-05-24T03:37:53.618Z,21.52
2023-05-24T03:40:22.909Z,21.46
2023-05-24T03:43:00.609Z,21.44
2023-05-24T03:46:05.222Z,21.51
2023-05-24T03:48:34.221Z,21.41
2023-05-24T03:51:02.771Z,21.36
2023-05-24T03:53:32.529Z,21.22
2023-05-24T03:56:01.679Z,21.12
2023-05-24T03:58:31.553Z,21.12
2023-05-24T04:01:00.221Z,21.14
2023-05-24T04:03:29.227Z,21.15
2023-05-24T04:05:57.794Z,21.08
2023-05-24T04:08:26.782Z,21.17
2023-05-24T04:10:55.364Z,21.04
2023-05-24T04:13:24.242Z,21.23
2023-05-24T04:15:53.006Z,21.19
2023-05-24T04:18:22.699Z,21.41
2023-05-24T04:20:51.284Z,21.43
2023-05-24T04:23:22.278Z,21.46
2023-05-24T04:25:51.283Z,21.50
2023-05-24T04:28:22.448Z,21.41
2023-05-24T04:30:52.502Z,21.33
2023-05-24T04:33:22.643Z,21.48
2023-05-24T04:35:53.070Z,21.48
2023-05-24T04:38:22.787Z,21.38
2023-05-24T04:40:51.251Z,21.36
2023-05-24T04:43:20.428Z,21.47
2023-05-24T04:45:49.078Z,21.53
2023-05-24T04:48:18.548Z,21.52
2023-05-24T04:50:47.893Z,21.48
2023-05-24T04:53:17.117Z,21.51
2023-05-24T04:55:45.923Z,21.57
2023-05-24T04:58:15.419Z,21.66
2023-05-24T05:00:44.882Z,21.73
2023-05-24T05:03:14.122Z,21.73
2023-05-24T05:05:42.888Z,21.62
2023-05-24T05:08:11.915Z,21.69
2023-05-24T05:10:41.394Z,21.79
2023-05-24T05:13:10.606Z,21.83
2023-05-24T05:15:40.915Z,21.79
2023-05-24T05:18:11.782Z,21.86
2023-05-24T05:20:41.083Z,21.83
2023-05-24T05:23:10.403Z,21.86
2023-05-24T05:25:39.064Z,21.89
2023-05-24T05:28:08.073Z,21.98
2023-05-24T05:30:36.794Z,21.89
2023-05-24T05:33:06.413Z,21.89
2023-05-24T05:35:35.176Z,21.95
2023-05-24T05:38:04.284Z,22.04
2023-05-24T05:40:33.044Z,21.98
2023-05-24T05:43:02.330Z,21.89
2023-05-24T05:45:31.246Z,21.94
2023-05-24T05:48:00.292Z,21.87
2023-05-24T05:50:28.937Z,22.00
2023-05-24T05:52:58.321Z,21.98
2023-05-24T05:55:26.997Z,22.16
2023-05-24T05:57:55.995Z,22.26
2023-05-24T06:00:24.657Z,22.35
2023-05-24T06:02:53.995Z,22.31
2023-05-24T06:05:22.808Z,22.50
2023-05-24T06:07:51.801Z,22.67
2023-05-24T06:10:20.503Z,22.71
2023-05-24T06:12:49.164Z,22.74
2023-05-24T06:15:17.689Z,22.81
2023-05-24T06:17:48.232Z,22.90
2023-05-24T06:20:17.339Z,22.89
2023-05-24T06:22:46.557Z,22.86
2023-05-24T06:25:19.443Z,22.67
2023-05-24T06:27:48.264Z,22.34
2023-05-24T06:30:16.848Z,22.51
2023-05-24T06:32:45.815Z,22.51
2023-05-24T06:35:14.470Z,22.59
2023-05-24T06:37:43.828Z,22.56
2023-05-24T06:40:13.213Z,22.60
2023-05-24T06:42:42.005Z,22.59
2023-05-24T06:45:11.439Z,22.51
2023-05-24T06:47:40.301Z,22.41
2023-05-24T06:50:09.654Z,22.27
2023-05-24T06:52:38.507Z,22.58
2023-05-24T06:55:07.320Z,22.86
2023-05-24T06:57:36.477Z,22.99
2023-05-24T07:00:10.162Z,22.87
2023-05-24T07:02:40.139Z,23.01
2023-05-24T07:05:12.749Z,23.14
2023-05-24T07:07:42.716Z,23.22
2023-05-24T07:10:11.861Z,23.15
2023-05-24T07:12:41.048Z,23.06
2023-05-24T07:15:10.115Z,23.27
2023-05-24T07:17:39.244Z,23.04
2023-05-24T07:20:11.419Z,23.29
2023-05-24T07:22:41.534Z,23.52
2023-05-24T07:25:10.595Z,23.60
2023-05-24T07:27:39.972Z,23.64
2023-05-24T07:30:19.765Z,23.38
2023-05-24T07:32:58.469Z,23.46
2023-05-24T07:35:29.033Z,23.25
2023-05-24T07:37:58.083Z,23.46
2023-05-24T07:40:26.839Z,23.71
2023-05-24T07:42:56.372Z,23.51
2023-05-24T07:45:25.322Z,23.19
2023-05-24T07:47:56.708Z,23.11
2023-05-24T07:50:26.928Z,23.04
2023-05-24T07:52:57.908Z,23.22
2023-05-24T07:55:28.166Z,23.17
2023-05-24T07:57:57.256Z,23.14
2023-05-24T08:00:26.077Z,23.45
2023-05-24T08:02:55.080Z,23.47
2023-05-24T08:05:24.205Z,23.41
2023-05-24T08:07:53.802Z,23.39
2023-05-24T08:10:22.467Z,23.10
2023-05-24T08:12:54.880Z,23.45
2023-05-24T08:15:23.796Z,23.73
2023-05-24T08:17:52.806Z,23.76
2023-05-24T08:20:21.701Z,23.82
2023-05-24T08:22:50.891Z,23.88
2023-05-24T08:25:20.231Z,23.96
2023-05-24T08:27:49.533Z,24.09
2023-05-24T08:30:18.630Z,23.66
2023-05-24T08:32:47.993Z,23.79
2023-05-24T08:35:21.551Z,23.90
2023-05-24T08:37:50.998Z,23.84
2023-05-24T08:40:19.797Z,23.76
2023-05-24T08:42:49.266Z,23.91
2023-05-24T08:45:18.180Z,23.90
2023-05-24T08:47:47.223Z,24.06
2023-05-24T08:50:15.962Z,24.19
2023-05-24T08:52:45.283Z,24.26
2023-05-24T08:55:13.983Z,24.24
2023-05-24T08:57:42.988Z,24.27
2023-05-24T09:00:13.287Z,24.13
2023-05-24T09:02:43.563Z,24.18
2023-05-24T09:05:14.714Z,24.20
2023-05-24T09:07:46.828Z,24.27
2023-05-24T09:10:15.921Z,24.32
2023-05-24T09:12:52.498Z,24.19
2023-05-24T09:15:24.443Z,24.28
2023-05-24T09:17:54.715Z,24.27
2023-05-24T09:20:23.656Z,24.37
2023-05-24T09:22:53.805Z,24.37
2023-05-24T09:25:22.796Z,24.40
2023-05-24T09:27:52.965Z,24.38
2023-05-24T09:30:22.017Z,24.48
2023-05-24T09:32:59.437Z,24.53
2023-05-24T09:35:28.946Z,24.63
2023-05-24T09:38:00.252Z,24.66
2023-05-24T09:40:29.954Z,24.64
2023-05-24T09:43:11.896Z,24.66
2023-05-24T09:45:47.528Z,24.71
2023-05-24T09:48:17.629Z,24.67
2023-05-24T09:50:57.649Z,24.70
2023-05-24T09:53:27.108Z,24.73
2023-05-24T09:55:56.397Z,24.74
2023-05-24T09:58:29.395Z,24.72
2023-05-24T10:01:06.760Z,24.73
2023-05-24T10:03:38.092Z,24.77
2023-05-24T10:06:11.718Z,24.79
2023-05-24T10:08:40.901Z,24.80
2023-05-24T10:11:09.866Z,24.77
2023-05-24T10:13:38.976Z,24.80
2023-05-24T10:16:07.677Z,24.83
2023-05-24T10:18:36.766Z,24.86
2023-05-24T10:21:09.902Z,24.99
2023-05-24T10:23:39.566Z,25.06
2023-05-24T10:26:11.990Z,25.09
2023-05-24T10:28:46.659Z,25.03
2023-05-24T10:31:27.181Z,25.05
2023-05-24T10:34:06.547Z,25.02
2023-05-24T10:36:37.341Z,25.07
2023-05-24T10:39:09.716Z,25.06
2023-05-24T10:41:44.724Z,25.00
2023-05-24T10:44:19.788Z,25.07
2023-05-24T10:47:08.905Z,25.14
2023-05-24T10:49:39.903Z,25.18
2023-05-24T10:52:10.055Z,25.19
2023-05-24T10:54:42.856Z,25.21
2023-05-24T10:57:15.805Z,25.21
2023-05-24T10:59:45.644Z,25.27
2023-05-24T11:02:15.226Z,25.28
2023-05-24T11:04:47.085Z,25.24
2023-05-24T11:07:16.321Z,25.31
2023-05-24T11:09:49.158Z,25.35
2023-05-24T11:12:18.764Z,25.35
2023-05-24T11:14:52.701Z,25.41
2023-05-24T11:17:23.124Z,25.35
2023-05-24T11:19:55.365Z,25.31
2023-05-24T11:22:25.888Z,25.37
2023-05-24T11:24:54.713Z,25.28
2023-05-24T11:27:23.272Z,25.18
2023-05-24T11:29:52.286Z,25.27
2023-05-24T11:32:22.085Z,25.32
2023-05-24T11:34:51.970Z,25.33
2023-05-24T11:37:28.642Z,25.38
2023-05-24T11:40:05.383Z,25.47
2023-05-24T11:42:33.951Z,25.48
2023-05-24T11:45:02.778Z,25.46
2023-05-24T11:47:31.350Z,25.61
2023-05-24T11:50:00.399Z,25.51
2023-05-24T11:52:29.219Z,25.51
2023-05-24T11:54:58.107Z,25.49
2023-05-24T11:57:40.615Z,25.40
2023-05-24T12:00:17.120Z,25.45
2023-05-24T12:02:49.261Z,25.56
2023-05-24T12:05:19.638Z,25.58
2023-05-24T12:07:51.459Z,25.39
2023-05-24T12:10:22.920Z,25.46
2023-05-24T12:12:52.128Z,25.61
2023-05-24T12:15:22.608Z,25.60
2023-05-24T12:17:51.698Z,25.61
2023-05-24T12:20:21.855Z,25.59
2023-05-24T12:22:53.920Z,25.58
2023-05-24T12:25:27.429Z,25.54
2023-05-24T12:27:56.785Z,25.61
2023-05-24T12:30:28.560Z,25.59
2023-05-24T12:32:57.944Z,25.50
2023-05-24T12:35:26.946Z,25.52
2023-05-24T12:38:01.703Z,25.52
2023-05-24T12:40:33.776Z,25.55
2023-05-24T12:43:04.090Z,25.60
2023-05-24T12:45:33.255Z,25.58
2023-05-24T12:48:03.219Z,25.70
2023-05-24T12:50:32.870Z,25.64
2023-05-24T12:53:01.488Z,25.59
2023-05-24T12:55:30.813Z,25.60
2023-05-24T12:58:01.940Z,25.59
2023-05-24T13:00:31.755Z,25.69
2023-05-24T13:03:00.439Z,25.73
2023-05-24T13:05:32.348Z,25.76
2023-05-24T13:08:04.278Z,25.74
2023-05-24T13:10:35.322Z,25.70
2023-05-24T13:13:05.516Z,25.73
2023-05-24T13:15:35.086Z,25.73
2023-05-24T13:18:05.645Z,25.74
2023-05-24T13:20:34.950Z,25.73
2023-05-24T13:23:03.666Z,25.77
2023-05-24T13:25:34.069Z,25.76
2023-05-24T13:28:02.801Z,25.72
2023-05-24T13:30:34.241Z,25.73
2023-05-24T13:33:02.952Z,25.79
2023-05-24T13:35:33.453Z,25.87
2023-05-24T13:38:02.113Z,25.92
2023-05-24T13:40:31.027Z,25.94
2023-05-24T13:42:59.957Z,25.88
2023-05-24T13:45:30.562Z,25.89
2023-05-24T13:48:04.333Z,25.96
2023-05-24T13:50:36.810Z,25.91
2023-05-24T13:53:06.128Z,25.88
2023-05-24T13:55:36.304Z,25.92
2023-05-24T13:58:05.417Z,25.98
2023-05-24T14:00:36.368Z,25.95
2023-05-24T14:03:06.398Z,26.01
2023-05-24T14:05:35.948Z,26.04
2023-05-24T14:08:07.021Z,26.08
2023-05-24T14:10:37.306Z,26.10
2023-05-24T14:15:39.095Z,25.97
2023-05-24T14:18:08.860Z,25.92
2023-05-24T14:20:38.766Z,25.98
2023-05-24T14:23:08.251Z,26.07
2023-05-24T14:25:38.044Z,26.02
2023-05-24T14:28:08.776Z,25.92
2023-05-24T14:30:38.285Z,25.88
2023-05-24T14:33:08.622Z,25.97
2023-05-24T14:35:41.457Z,26.07
2023-05-24T14:38:11.636Z,26.10
2023-05-24T14:40:41.146Z,26.16
2023-05-24T14:43:11.055Z,25.96
2023-05-24T14:45:42.279Z,25.98
2023-05-24T14:48:12.538Z,26.00
2023-05-24T14:50:42.185Z,25.90
2023-05-24T14:53:13.973Z,26.02
2023-05-24T14:55:44.044Z,25.93
2023-05-24T14:58:13.365Z,25.96
2023-05-24T15:00:43.284Z,26.04
2023-05-24T15:03:14.755Z,26.03
2023-05-24T15:05:44.131Z,26.10
2023-05-24T15:08:12.971Z,26.08
2023-05-24T15:10:45.182Z,26.10
2023-05-24T15:13:14.222Z,26.07
2023-05-24T15:15:43.538Z,26.00
2023-05-24T15:18:12.287Z,25.99
2023-05-24T15:20:41.720Z,25.85
2023-05-24T15:23:11.087Z,25.78
2023-05-24T15:25:41.205Z,25.77
2023-05-24T15:28:13.158Z,25.78
2023-05-24T15:30:44.843Z,25.73
2023-05-24T15:33:14.188Z,25.73
2023-05-24T15:35:43.474Z,25.67
2023-05-24T15:38:12.263Z,25.67
2023-05-24T15:40:42.911Z,25.70
2023-05-24T15:43:11.852Z,25.66
2023-05-24T15:45:40.812Z,25.57
2023-05-24T15:48:10.644Z,25.50
2023-05-24T15:51:03.761Z,25.54
2023-05-24T15:53:28.963Z,25.38
2023-05-24T15:55:57.933Z,25.44
2023-05-24T15:58:26.910Z,25.47
2023-05-24T16:00:56.058Z,25.44
2023-05-24T16:03:25.245Z,25.31
2023-05-24T16:05:54.430Z,25.33
2023-05-24T16:08:28.138Z,25.34
2023-05-24T16:10:57.954Z,25.27
2023-05-24T16:13:27.127Z,25.17
2023-05-24T16:15:56.668Z,25.25
2023-05-24T16:18:27.288Z,25.27
2023-05-24T16:20:57.065Z,25.18
2023-05-24T16:23:25.993Z,25.06
2023-05-24T16:25:55.306Z,25.17
2023-05-24T16:28:25.150Z,25.19
2023-05-24T16:30:56.475Z,25.12
2023-05-24T16:33:25.614Z,24.89
2023-05-24T16:36:00.500Z,24.87
2023-05-24T16:38:32.869Z,24.89
2023-05-24T16:41:02.308Z,24.83
2023-05-24T16:43:34.559Z,24.73
2023-05-24T16:46:05.064Z,24.92
2023-05-24T16:48:34.251Z,24.94
2023-05-24T16:51:05.002Z,24.81
2023-05-24T16:53:34.074Z,24.53
2023-05-24T16:56:03.510Z,24.69
2023-05-24T16:58:32.170Z,24.51
2023-05-24T17:01:03.188Z,24.43
2023-05-24T17:03:34.689Z,24.35
2023-05-24T17:06:07.171Z,24.29
2023-05-24T17:08:36.752Z,24.04
2023-05-24T17:11:06.610Z,24.10
2023-05-24T17:13:36.754Z,23.94
2023-05-24T17:16:06.680Z,24.10
2023-05-24T17:18:36.204Z,24.10
2023-05-24T17:21:06.078Z,24.17
2023-05-24T17:23:37.720Z,24.14
2023-05-24T17:26:14.943Z,23.59
2023-05-24T17:28:46.637Z,23.54
2023-05-24T17:31:17.381Z,23.54
2023-05-24T17:33:46.789Z,23.49
2023-05-24T17:36:19.039Z,23.44
2023-05-24T17:38:47.839Z,23.45
2023-05-24T17:41:18.385Z,23.26
2023-05-24T17:43:48.194Z,23.40
2023-05-24T17:46:18.100Z,23.57
2023-05-24T17:48:48.138Z,23.35
2023-05-24T17:51:21.087Z,23.50
2023-05-24T17:53:51.614Z,23.42
2023-05-24T17:56:23.479Z,23.43
2023-05-24T17:58:52.558Z,23.49
2023-05-24T18:01:23.927Z,23.37
2023-05-24T18:03:53.096Z,23.15
2023-05-24T18:06:23.537Z,23.09
2023-05-24T18:08:54.093Z,23.18
2023-05-24T18:11:24.739Z,22.78
2023-05-24T18:13:54.809Z,23.08
2023-05-24T18:16:27.097Z,23.26
2023-05-24T18:18:56.430Z,23.22
2023-05-24T18:21:28.876Z,23.38
2023-05-24T18:23:59.364Z,23.17
2023-05-24T18:26:28.978Z,23.11
2023-05-24T18:28:59.305Z,23.24
2023-05-24T18:31:28.258Z,23.15
2023-05-24T18:33:57.857Z,23.30
2023-05-24T18:36:29.139Z,23.29
2023-05-24T18:38:58.542Z,23.29
2023-05-24T18:41:32.566Z,23.46
2023-05-24T18:44:07.869Z,23.49
2023-05-24T18:46:39.503Z,23.38
2023-05-24T18:49:11.245Z,23.33
2023-05-24T18:51:44.103Z,23.34
2023-05-24T18:54:14.673Z,23.29
2023-05-24T18:56:47.330Z,23.32
2023-05-24T18:59:18.712Z,23.44
2023-05-24T19:01:49.858Z,23.39
2023-05-24T19:04:18.720Z,23.36
2023-05-24T19:06:54.598Z,23.27
2023-05-24T19:09:25.095Z,23.33
2023-05-24T19:11:59.523Z,23.29
2023-05-24T19:14:31.331Z,23.33
2023-05-24T19:17:02.400Z,23.20
2023-05-24T19:19:33.882Z,23.13
2023-05-24T19:22:04.007Z,23.17
2023-05-24T19:24:35.216Z,23.04
2023-05-24T19:29:40.113Z,22.87
2023-05-24T19:32:11.922Z,22.91
2023-05-24T19:34:45.421Z,22.75
2023-05-24T19:37:21.097Z,22.78
2023-05-24T19:39:51.715Z,22.73
2023-05-24T19:42:23.181Z,22.71
2023-05-24T19:44:54.234Z,22.68
2023-05-24T19:47:26.015Z,22.70
2023-05-24T19:50:00.283Z,22.61
2023-05-24T19:52:38.838Z,22.71
2023-05-24T19:55:28.012Z,22.83
2023-05-24T19:58:02.538Z,22.94
2023-05-24T20:00:36.081Z,22.94
2023-05-24T20:06:24.792Z,23.09
2023-05-24T21:03:57.785Z,23.26
2023-05-24T21:06:50.426Z,23.21
2023-05-24T21:09:26.078Z,23.31
2023-05-24T21:12:45.557Z,23.28
2023-05-24T21:15:33.185Z,23.27
2023-05-24T21:18:05.656Z,23.36
2023-05-24T21:20:51.535Z,23.42
2023-05-24T21:24:04.124Z,23.36
2023-05-24T21:26:32.945Z,23.34
2023-05-24T21:29:22.356Z,23.38
2023-05-24T21:32:12.085Z,23.42
2023-05-24T21:34:46.177Z,23.40
2023-05-24T21:37:40.544Z,23.35
2023-05-24T21:40:37.155Z,23.38
2023-05-24T21:43:12.563Z,23.36
2023-05-24T21:45:42.354Z,23.36
2023-05-24T21:48:21.685Z,23.33
2023-05-24T21:50:51.734Z,23.30
2023-05-24T21:53:20.525Z,23.34
2023-05-24T21:55:55.308Z,23.35
2023-05-24T21:58:38.868Z,23.36
2023-05-24T22:01:08.986Z,23.39
2023-05-24T22:03:44.554Z,23.34
2023-05-24T22:06:44.421Z,23.30
2023-05-24T22:09:25.594Z,23.24
2023-05-24T22:11:56.023Z,23.16
2023-05-24T22:14:27.683Z,23.18
2023-05-24T22:17:14.439Z,23.08
2023-05-24T22:20:01.530Z,23.08
2023-05-24T22:26:17.251Z,23.15
2023-05-24T22:28:52.669Z,23.07
2023-05-24T22:31:25.739Z,23.04
2023-05-24T22:33:59.273Z,23.06
2023-05-24T22:36:39.755Z,23.04
2023-05-24T22:39:14.712Z,23.03
2023-05-24T22:41:45.177Z,22.99
2023-05-24T22:44:17.576Z,22.99
2023-05-24T22:46:54.831Z,23.02
2023-05-24T22:49:36.705Z,23.09
2023-05-24T22:52:07.304Z,23.03
2023-05-24T22:54:49.596Z,23.02
2023-05-24T22:57:23.800Z,22.95
2023-05-24T23:00:08.566Z,22.99
2023-05-24T23:03:02.458Z,22.96
2023-05-24T23:05:41.319Z,22.95
2023-05-24T23:08:15.492Z,22.92
2023-05-24T23:10:49.362Z,23.06
2023-05-24T23:13:53.365Z,23.03
2023-05-24T23:16:25.939Z,23.01
2023-05-24T23:19:21.266Z,23.03
2023-05-24T23:22:11.426Z,23.13
2023-05-24T23:24:42.829Z,23.18
2023-05-24T23:27:12.762Z,23.25
2023-05-24T23:29:42.509Z,23.28
2023-05-24T23:32:19.259Z,23.29
2023-05-24T23:34:56.569Z,23.29
2023-05-24T23:37:39.744Z,23.40
2023-05-24T23:40:34.341Z,23.48
2023-05-24T23:43:07.443Z,23.52
2023-05-24T23:45:40.160Z,23.58
2023-05-24T23:48:30.201Z,23.57
2023-05-24T23:58:56.079Z,23.38
